createdAt,value
2022-10-13T00:00:41.409Z,7.00
2022-10-13T00:03:09.553Z,8.00
2022-10-13T00:05:41.660Z,5.40
2022-10-13T00:08:09.732Z,5.00
2022-10-13T00:10:43.224Z,15.00
2022-10-13T00:13:12.959Z,7.80
2022-10-13T00:15:41.368Z,7.20
2022-10-13T00:18:09.615Z,5.00
2022-10-13T00:20:42.141Z,9.00
2022-10-13T00:23:10.164Z,9.20
2022-10-13T00:25:42.283Z,9.50
2022-10-13T00:28:10.302Z,9.00
2022-10-13T00:30:38.321Z,8.00
2022-10-13T00:33:06.336Z,9.40
2022-10-13T00:35:34.426Z,7.40
2022-10-13T00:38:03.808Z,9.00
2022-10-13T00:40:32.144Z,5.40
2022-10-13T00:43:00.194Z,9.20
2022-10-13T00:45:29.431Z,11.00
2022-10-13T00:47:58.622Z,5.50
2022-10-13T00:50:28.915Z,9.33
2022-10-13T00:52:58.016Z,5.00
2022-10-13T00:55:29.028Z,6.20
2022-10-13T00:58:04.104Z,9.50
2022-10-13T01:00:33.473Z,8.00
2022-10-13T01:03:01.989Z,8.00
2022-10-13T01:05:30.065Z,10.00
2022-10-13T01:07:58.647Z,9.00
2022-10-13T01:10:37.360Z,6.80
2022-10-13T01:13:08.978Z,9.00
2022-10-13T01:15:39.718Z,7.00
2022-10-13T01:18:11.929Z,7.40
2022-10-13T01:20:58.626Z,8.60
2022-10-13T01:23:58.797Z,9.00
2022-10-13T01:26:56.557Z,7.00
2022-10-13T01:29:50.142Z,9.50
2022-10-13T01:32:21.301Z,7.50
2022-10-13T01:34:52.225Z,13.00
2022-10-13T01:37:21.738Z,7.50
2022-10-13T01:39:53.496Z,7.80
2022-10-13T01:42:23.832Z,7.60
2022-10-13T01:44:52.734Z,10.67
2022-10-13T01:47:22.092Z,8.00
2022-10-13T01:49:51.679Z,10.00
2022-10-13T01:52:20.612Z,10.00
2022-10-13T01:54:49.642Z,7.40
2022-10-13T01:57:32.436Z,9.00
2022-10-13T02:00:00.579Z,12.00
2022-10-13T02:02:31.640Z,8.20
2022-10-13T02:05:04.360Z,7.00
2022-10-13T02:07:35.024Z,10.40
2022-10-13T02:10:05.972Z,11.60
2022-10-13T02:12:35.852Z,11.20
2022-10-13T02:15:03.986Z,10.50
2022-10-13T02:17:33.341Z,9.50
2022-10-13T02:20:01.368Z,10.00
2022-10-13T02:22:30.988Z,9.60
2022-10-13T02:25:00.381Z,9.40
2022-10-13T02:27:29.347Z,10.00
2022-10-13T02:29:58.302Z,9.00
2022-10-13T02:32:30.563Z,12.60
2022-10-13T02:34:59.952Z,14.25
2022-10-13T02:37:28.036Z,10.00
2022-10-13T02:39:56.065Z,13.75
2022-10-13T02:42:24.328Z,14.00
2022-10-13T02:44:56.725Z,12.40
2022-10-13T02:47:24.726Z,10.00
2022-10-13T02:49:52.766Z,11.75
2022-10-13T02:52:22.403Z,8.40
2022-10-13T02:54:50.561Z,10.00
2022-10-13T02:57:18.887Z,12.50
2022-10-13T02:59:47.017Z,12.00
2022-10-13T03:02:15.010Z,13.20
2022-10-13T03:04:43.034Z,15.00
2022-10-13T03:07:11.049Z,14.25
2022-10-13T03:09:40.469Z,14.00
2022-10-13T03:12:08.802Z,12.67
2022-10-13T03:14:36.928Z,14.00
2022-10-13T03:17:05.374Z,20.00
2022-10-13T03:19:34.381Z,12.00
2022-10-13T03:22:02.399Z,12.00
2022-10-13T03:24:30.599Z,12.00
2022-10-13T03:26:59.975Z,9.50
2022-10-13T03:29:28.059Z,20.00
2022-10-13T03:31:56.094Z,14.60
2022-10-13T03:34:24.148Z,13.00
2022-10-13T03:36:52.170Z,17.60
2022-10-13T03:39:20.204Z,13.00
2022-10-13T03:41:48.233Z,13.20
2022-10-13T03:44:17.668Z,15.00
2022-10-13T03:46:45.680Z,12.00
2022-10-13T03:49:13.784Z,14.40
2022-10-13T03:51:41.816Z,18.00
2022-10-13T03:54:11.941Z,13.20
2022-10-13T03:56:40.012Z,16.00
2022-10-13T03:59:08.404Z,14.75
2022-10-13T04:01:37.816Z,16.00
2022-10-13T04:04:07.572Z,13.00
2022-10-13T04:06:35.717Z,18.00
2022-10-13T04:09:03.822Z,13.20
2022-10-13T04:11:31.854Z,23.60
2022-10-13T04:13:59.981Z,43.25
2022-10-13T04:16:28.892Z,19.50
2022-10-13T04:19:00.118Z,59.20
2022-10-13T04:21:28.401Z,44.40
2022-10-13T04:23:57.303Z,39.50
2022-10-13T04:26:26.096Z,53.50
2022-10-13T04:28:54.695Z,45.00
2022-10-13T04:31:22.927Z,60.00
2022-10-13T04:33:50.987Z,52.80
2022-10-13T04:36:20.459Z,38.80
2022-10-13T04:38:51.097Z,21.60
2022-10-13T04:41:19.388Z,17.60
2022-10-13T04:43:48.848Z,17.75
2022-10-13T04:46:18.946Z,18.00
2022-10-13T04:48:47.019Z,21.25
2022-10-13T04:51:15.771Z,21.60
2022-10-13T04:53:45.203Z,26.25
2022-10-13T04:56:14.716Z,22.00
2022-10-13T04:58:43.013Z,19.80
2022-10-13T05:01:16.482Z,22.50
2022-10-13T05:03:48.493Z,21.00
2022-10-13T05:06:17.336Z,21.00
2022-10-13T05:08:50.435Z,15.00
2022-10-13T05:11:20.003Z,19.00
2022-10-13T05:13:49.132Z,16.00
2022-10-13T05:16:17.809Z,16.00
2022-10-13T05:18:45.909Z,19.00
2022-10-13T05:21:14.837Z,14.60
2022-10-13T05:23:43.078Z,18.20
2022-10-13T05:26:13.497Z,18.20
2022-10-13T05:28:41.646Z,16.00
2022-10-13T05:31:10.901Z,20.00
2022-10-13T05:33:39.015Z,20.00
2022-10-13T05:36:08.086Z,25.00
2022-10-13T05:38:38.659Z,17.80
2022-10-13T05:41:06.957Z,15.00
2022-10-13T05:43:36.385Z,18.00
2022-10-13T05:46:04.458Z,18.00
2022-10-13T05:48:37.429Z,24.00
2022-10-13T05:51:07.817Z,15.00
2022-10-13T05:53:37.877Z,21.00
2022-10-13T05:56:07.492Z,15.50
2022-10-13T05:58:38.577Z,18.60
2022-10-13T06:01:07.113Z,20.40
2022-10-13T06:03:35.127Z,15.00
2022-10-13T06:06:03.136Z,69.50
2022-10-13T06:08:31.286Z,29.00
2022-10-13T06:10:59.300Z,20.00
2022-10-13T06:13:27.333Z,19.50
2022-10-13T06:15:56.781Z,18.40
2022-10-13T06:18:24.815Z,17.00
2022-10-13T06:20:52.838Z,17.00
2022-10-13T06:23:20.868Z,32.60
2022-10-13T06:25:49.261Z,22.00
2022-10-13T06:28:18.895Z,26.60
2022-10-13T06:30:49.383Z,71.00
2022-10-13T06:33:19.589Z,30.60
2022-10-13T06:35:47.612Z,17.60
2022-10-13T06:38:15.654Z,17.00
2022-10-13T06:40:43.669Z,21.50
2022-10-13T06:43:11.719Z,22.00
2022-10-13T06:45:42.662Z,22.00
2022-10-13T06:48:10.697Z,17.00
2022-10-13T06:50:42.870Z,18.20
2022-10-13T06:53:11.128Z,25.00
2022-10-13T06:55:40.076Z,29.50
2022-10-13T06:58:08.113Z,30.50
2022-10-13T07:00:36.185Z,25.00
2022-10-13T07:03:04.308Z,28.40
2022-10-13T07:05:33.031Z,29.75
2022-10-13T07:08:02.509Z,40.25
2022-10-13T07:10:30.526Z,48.20
2022-10-13T07:12:58.709Z,32.60
2022-10-13T07:15:27.034Z,27.60
2022-10-13T07:17:55.532Z,29.60
2022-10-13T07:20:23.651Z,27.20
2022-10-13T07:22:54.245Z,45.00
2022-10-13T07:25:24.536Z,55.00
2022-10-13T07:27:52.592Z,47.50
2022-10-13T07:30:20.792Z,48.00
2022-10-13T07:32:48.879Z,43.33
2022-10-13T07:35:17.130Z,44.50
2022-10-13T07:37:45.268Z,39.40
2022-10-13T07:40:13.658Z,51.50
2022-10-13T07:42:43.052Z,34.00
2022-10-13T07:45:11.733Z,32.75
2022-10-13T07:47:39.768Z,35.00
2022-10-13T07:50:09.343Z,39.00
2022-10-13T07:52:37.406Z,41.25
2022-10-13T07:55:06.285Z,40.00
2022-10-13T07:57:34.339Z,47.00
2022-10-13T08:00:06.110Z,43.50
2022-10-13T08:02:40.379Z,45.00
2022-10-13T08:05:08.974Z,30.20
2022-10-13T08:07:37.924Z,30.00
2022-10-13T08:10:06.753Z,28.75
2022-10-13T08:12:36.250Z,30.50
2022-10-13T08:15:09.748Z,29.50
2022-10-13T08:17:37.868Z,35.75
2022-10-13T08:20:06.894Z,35.20
2022-10-13T08:22:34.946Z,51.75
2022-10-13T08:25:03.061Z,51.60
2022-10-13T08:27:49.782Z,33.75
2022-10-13T08:30:20.310Z,31.00
2022-10-13T08:32:48.506Z,77.75
2022-10-13T08:35:16.618Z,43.80
2022-10-13T08:37:44.791Z,35.60
2022-10-13T08:40:14.409Z,40.40
2022-10-13T08:42:44.269Z,47.00
2022-10-13T08:45:40.869Z,45.40
2022-10-13T08:48:04.806Z,50.00
2022-10-13T08:50:35.784Z,30.00
2022-10-13T08:53:06.100Z,24.80
2022-10-13T08:55:36.697Z,32.67
2022-10-13T08:58:08.005Z,25.00
2022-10-13T09:00:36.020Z,30.00
2022-10-13T09:03:26.639Z,30.60
2022-10-13T09:06:02.086Z,24.00
2022-10-13T09:08:30.495Z,33.00
2022-10-13T09:10:59.748Z,23.60
2022-10-13T09:13:28.184Z,24.00
2022-10-13T09:15:58.110Z,28.00
2022-10-13T09:18:31.887Z,22.00
2022-10-13T09:21:11.338Z,25.00
2022-10-13T09:23:41.849Z,26.60
2022-10-13T09:26:10.913Z,36.33
2022-10-13T09:28:39.891Z,36.75
2022-10-13T09:31:14.677Z,22.20
2022-10-13T09:33:44.120Z,30.50
2022-10-13T09:36:13.520Z,27.25
2022-10-13T09:38:42.302Z,24.00
2022-10-13T09:41:15.045Z,30.00
2022-10-13T09:43:44.284Z,26.00
2022-10-13T09:46:20.418Z,25.60
2022-10-13T09:48:51.963Z,26.80
2022-10-13T09:51:33.901Z,24.75
2022-10-13T09:54:26.608Z,53.75
2022-10-13T09:56:55.843Z,33.20
2022-10-13T09:59:28.721Z,29.00
2022-10-13T10:01:57.815Z,22.00
2022-10-13T10:04:36.816Z,29.25
2022-10-13T10:07:10.953Z,24.00
2022-10-13T10:09:40.242Z,29.80
2022-10-13T10:12:10.325Z,29.20
2022-10-13T10:14:38.796Z,27.50
2022-10-13T10:17:15.534Z,26.60
2022-10-13T10:19:50.369Z,31.75
2022-10-13T10:22:24.108Z,31.80
2022-10-13T10:24:54.604Z,30.50
2022-10-13T10:27:25.694Z,27.80
2022-10-13T10:29:56.271Z,26.80
2022-10-13T10:32:29.193Z,31.33
2022-10-13T10:35:00.641Z,23.00
2022-10-13T10:37:54.634Z,29.75
2022-10-13T10:40:29.853Z,28.20
2022-10-13T10:43:04.542Z,28.40
2022-10-13T10:45:34.760Z,23.80
2022-10-13T10:48:03.862Z,30.20
2022-10-13T10:50:33.427Z,28.50
2022-10-13T10:53:03.008Z,27.75
2022-10-13T10:55:33.987Z,26.60
2022-10-13T10:58:08.710Z,24.60
2022-10-13T11:00:39.974Z,25.00
2022-10-13T11:03:10.438Z,23.80
2022-10-13T11:06:03.028Z,24.60
2022-10-13T11:08:32.155Z,28.25
2022-10-13T11:11:45.775Z,30.50
2022-10-13T11:14:32.545Z,26.20
2022-10-13T11:17:04.897Z,23.50
2022-10-13T11:19:33.350Z,24.50
2022-10-13T11:22:19.345Z,24.20
2022-10-13T11:24:52.329Z,24.00
2022-10-13T11:27:21.222Z,20.75
2022-10-13T11:29:55.044Z,24.00
2022-10-13T11:32:55.421Z,23.25
2022-10-13T11:35:28.035Z,19.20
2022-10-13T11:38:22.347Z,25.00
2022-10-13T11:41:03.517Z,27.40
2022-10-13T11:43:41.813Z,27.50
2022-10-13T11:46:27.638Z,24.25
2022-10-13T11:49:05.466Z,23.00
2022-10-13T11:51:38.070Z,22.00
2022-10-13T11:54:13.455Z,22.20
2022-10-13T11:56:48.653Z,20.60
2022-10-13T11:59:22.101Z,20.20
2022-10-13T12:01:54.166Z,25.00
2022-10-13T12:04:23.389Z,25.00
2022-10-13T12:06:55.856Z,23.60
2022-10-13T12:09:25.375Z,21.40
2022-10-13T12:12:03.806Z,24.00
2022-10-13T12:14:34.013Z,25.20
2022-10-13T12:17:02.662Z,19.40
2022-10-13T12:19:31.611Z,22.50
2022-10-13T12:22:00.707Z,22.25
2022-10-13T12:24:30.905Z,21.60
2022-10-13T12:26:59.278Z,17.60
2022-10-13T12:29:33.382Z,21.50
2022-10-13T12:32:06.019Z,27.00
2022-10-13T12:34:36.067Z,22.20
2022-10-13T12:37:05.805Z,29.00
2022-10-13T12:39:35.212Z,24.25
2022-10-13T12:42:04.040Z,24.50
2022-10-13T12:44:32.800Z,24.00
2022-10-13T12:47:03.722Z,24.75
2022-10-13T12:49:32.471Z,22.00
2022-10-13T12:52:05.504Z,22.60
2022-10-13T12:54:35.765Z,20.00
2022-10-13T12:57:06.061Z,25.80
2022-10-13T12:59:34.652Z,29.50
2022-10-13T13:02:04.337Z,21.60
2022-10-13T13:04:40.596Z,25.20
2022-10-13T13:07:26.418Z,31.60
2022-10-13T13:10:19.791Z,25.00
2022-10-13T13:12:48.608Z,26.00
2022-10-13T13:15:22.133Z,27.50
2022-10-13T13:17:58.264Z,27.75
2022-10-13T13:20:28.382Z,27.20
2022-10-13T13:22:56.501Z,31.25
2022-10-13T13:25:25.942Z,26.60
2022-10-13T13:27:54.057Z,28.25
2022-10-13T13:30:23.387Z,45.25
2022-10-13T13:32:51.511Z,33.50
2022-10-13T13:35:19.597Z,28.40
2022-10-13T13:37:49.908Z,28.80
2022-10-13T13:40:19.033Z,24.00
2022-10-13T13:42:48.438Z,29.00
2022-10-13T13:45:16.582Z,30.00
2022-10-13T13:47:44.675Z,25.00
2022-10-13T13:50:15.332Z,29.25
2022-10-13T13:52:48.514Z,30.60
2022-10-13T13:55:16.639Z,39.80
2022-10-13T13:57:44.898Z,44.80
2022-10-13T14:00:15.490Z,31.00
2022-10-13T14:02:46.142Z,28.20
2022-10-13T14:05:14.231Z,48.50
2022-10-13T14:07:42.306Z,35.80
2022-10-13T14:10:10.912Z,28.25
2022-10-13T14:12:38.979Z,31.80
2022-10-13T14:15:08.004Z,27.50
2022-10-13T14:17:37.538Z,26.75
2022-10-13T14:20:06.478Z,32.00
2022-10-13T14:22:39.179Z,29.20
2022-10-13T14:25:07.882Z,28.20
2022-10-13T14:27:37.089Z,24.60
2022-10-13T14:30:06.087Z,21.80
2022-10-13T14:32:34.215Z,31.00
2022-10-13T14:35:03.657Z,28.25
2022-10-13T14:37:33.562Z,26.50
2022-10-13T14:40:02.080Z,21.50
2022-10-13T14:42:30.143Z,25.20
2022-10-13T14:44:58.169Z,20.50
2022-10-13T14:47:26.213Z,23.00
2022-10-13T14:49:54.282Z,20.00
2022-10-13T14:52:23.686Z,18.25
2022-10-13T14:54:51.710Z,21.00
2022-10-13T14:57:21.107Z,24.80
2022-10-13T14:59:49.387Z,17.00
2022-10-13T15:02:17.430Z,28.00
2022-10-13T15:04:54.660Z,20.40
2022-10-13T15:07:24.197Z,22.00
2022-10-13T15:10:04.239Z,20.40
2022-10-13T15:12:33.313Z,21.00
2022-10-13T15:15:01.333Z,24.80
2022-10-13T15:17:30.699Z,18.25
2022-10-13T15:19:58.790Z,17.50
2022-10-13T15:22:28.274Z,18.00
2022-10-13T15:24:56.290Z,20.00
2022-10-13T15:27:24.349Z,17.00
2022-10-13T15:29:52.356Z,25.00
2022-10-13T15:32:21.146Z,22.50
2022-10-13T15:34:55.897Z,23.00
2022-10-13T15:37:23.963Z,16.60
2022-10-13T15:39:57.190Z,16.25
2022-10-13T15:42:25.691Z,18.50
2022-10-13T15:45:12.513Z,25.00
2022-10-13T15:47:40.632Z,19.00
2022-10-13T15:50:09.541Z,21.80
2022-10-13T15:52:39.849Z,22.80
2022-10-13T15:55:09.798Z,21.75
2022-10-13T15:57:37.875Z,28.00
2022-10-13T16:00:07.194Z,33.00
2022-10-13T16:02:40.468Z,22.50
2022-10-13T16:05:09.941Z,25.40
2022-10-13T16:07:38.085Z,29.40
2022-10-13T16:10:06.704Z,33.20
2022-10-13T16:12:36.105Z,36.25
2022-10-13T16:15:04.158Z,34.50
2022-10-13T16:17:32.204Z,24.67
2022-10-13T16:20:00.225Z,23.00
2022-10-13T16:22:28.270Z,19.75
2022-10-13T16:24:56.337Z,26.00
2022-10-13T16:27:24.734Z,28.00
2022-10-13T16:29:54.125Z,22.80
2022-10-13T16:32:22.652Z,23.25
2022-10-13T16:34:50.892Z,29.40
2022-10-13T16:37:20.559Z,20.33
2022-10-13T16:39:51.776Z,24.80
2022-10-13T16:42:20.234Z,28.00
2022-10-13T16:44:48.245Z,32.00
2022-10-13T16:47:18.782Z,35.25
2022-10-13T16:49:47.476Z,28.20
2022-10-13T16:52:16.125Z,31.50
2022-10-13T16:54:45.048Z,33.60
2022-10-13T16:57:13.111Z,27.50
2022-10-13T16:59:41.498Z,25.80
2022-10-13T17:02:13.994Z,33.40
2022-10-13T17:04:43.394Z,33.20
2022-10-13T17:07:11.435Z,28.00
2022-10-13T17:09:39.474Z,37.00
2022-10-13T17:12:08.195Z,32.75
2022-10-13T17:14:36.230Z,37.00
2022-10-13T17:17:04.359Z,32.00
2022-10-13T17:19:32.379Z,31.25
2022-10-13T17:22:01.765Z,34.80
2022-10-13T17:24:29.961Z,43.75
2022-10-13T17:26:58.027Z,39.00
2022-10-13T17:29:26.112Z,43.50
2022-10-13T17:31:54.710Z,45.75
2022-10-13T17:34:23.677Z,41.60
2022-10-13T17:36:52.627Z,35.25
2022-10-13T17:39:22.010Z,33.20
2022-10-13T17:41:50.049Z,35.80
2022-10-13T17:44:20.786Z,31.20
2022-10-13T17:46:48.962Z,32.20
2022-10-13T17:49:17.113Z,31.00
2022-10-13T17:51:45.368Z,21.00
2022-10-13T17:54:16.359Z,26.40
2022-10-13T17:56:46.283Z,27.60
2022-10-13T17:59:14.369Z,24.60
2022-10-13T18:01:42.668Z,27.25
2022-10-13T18:04:12.251Z,38.60
2022-10-13T18:06:41.472Z,32.00
2022-10-13T18:09:10.760Z,25.60
2022-10-13T18:11:38.833Z,33.50
2022-10-13T18:14:08.919Z,35.50
2022-10-13T18:16:39.029Z,33.75
2022-10-13T18:19:07.059Z,28.60
2022-10-13T18:21:35.114Z,40.40
2022-10-13T18:24:03.401Z,33.00
2022-10-13T18:26:34.988Z,44.33
2022-10-13T18:29:03.300Z,30.75
2022-10-13T18:31:33.610Z,34.40
2022-10-13T18:34:02.423Z,36.50
2022-10-13T18:36:31.937Z,36.00
2022-10-13T18:39:02.262Z,33.50
2022-10-13T18:41:30.303Z,33.00
2022-10-13T18:43:58.337Z,38.00
2022-10-13T18:46:26.391Z,33.25
2022-10-13T18:48:56.024Z,35.75
2022-10-13T18:51:24.104Z,38.50
2022-10-13T18:53:52.169Z,33.00
2022-10-13T18:56:23.073Z,33.40
2022-10-13T18:58:55.678Z,36.80
2022-10-13T19:01:26.956Z,35.25
2022-10-13T19:03:56.415Z,29.00
2022-10-13T19:06:27.005Z,37.20
2022-10-13T19:08:55.700Z,39.00
2022-10-13T19:11:24.628Z,36.20
2022-10-13T19:13:52.822Z,37.00
2022-10-13T19:16:22.276Z,36.20
2022-10-13T19:18:50.354Z,45.20
2022-10-13T19:21:19.956Z,52.00
2022-10-13T19:23:47.969Z,54.50
2022-10-13T19:26:23.959Z,51.00
2022-10-13T19:28:54.712Z,49.00
2022-10-13T19:31:23.492Z,44.00
2022-10-13T19:33:52.580Z,49.00
2022-10-13T19:36:26.036Z,55.40
2022-10-13T19:38:54.348Z,56.00
2022-10-13T19:41:22.383Z,57.00
2022-10-13T19:43:50.690Z,54.50
2022-10-13T19:46:19.490Z,60.60
2022-10-13T19:48:47.713Z,60.40
2022-10-13T19:51:15.738Z,51.00
2022-10-13T19:53:45.251Z,50.40
2022-10-13T19:56:21.197Z,49.00
2022-10-13T19:58:49.204Z,39.60
2022-10-13T20:01:18.982Z,48.00
2022-10-13T20:03:47.303Z,41.25
2022-10-13T20:06:15.684Z,43.20
2022-10-13T20:08:45.989Z,42.00
2022-10-13T20:11:19.330Z,43.00
2022-10-13T20:13:50.381Z,42.75
2022-10-13T20:16:20.000Z,45.00
2022-10-13T20:18:52.097Z,40.00
2022-10-13T20:21:20.142Z,38.25
2022-10-13T20:23:49.598Z,40.20
2022-10-13T20:26:17.693Z,40.00
2022-10-13T20:28:46.442Z,43.40
2022-10-13T20:31:15.354Z,40.00
2022-10-13T20:33:43.413Z,41.00
2022-10-13T20:36:13.697Z,41.40
2022-10-13T20:38:41.866Z,39.20
2022-10-13T20:41:15.533Z,36.40
2022-10-13T20:43:43.563Z,38.50
2022-10-13T20:46:11.591Z,32.00
2022-10-13T20:49:08.800Z,43.00
2022-10-13T20:51:28.635Z,39.60
2022-10-13T20:53:56.650Z,45.25
2022-10-13T20:56:26.638Z,36.00
2022-10-13T20:58:54.711Z,42.00
2022-10-13T21:01:23.466Z,35.80
2022-10-13T21:03:54.564Z,29.60
2022-10-13T21:06:23.336Z,44.00
2022-10-13T21:08:51.478Z,35.75
2022-10-13T21:11:20.230Z,34.60
2022-10-13T21:13:49.628Z,34.00
2022-10-13T21:16:18.770Z,45.25
2022-10-13T21:18:48.154Z,45.00
2022-10-13T21:21:16.912Z,44.40
2022-10-13T21:23:45.152Z,44.00
2022-10-13T21:26:21.169Z,40.20
2022-10-13T21:28:51.415Z,42.00
2022-10-13T21:31:20.402Z,43.20
2022-10-13T21:33:48.501Z,35.40
2022-10-13T21:36:17.818Z,52.50
2022-10-13T21:38:46.280Z,41.00
2022-10-13T21:41:14.915Z,46.00
2022-10-13T21:43:42.960Z,42.00
2022-10-13T21:46:13.035Z,42.60
2022-10-13T21:48:43.963Z,40.00
2022-10-13T21:51:16.121Z,41.00
2022-10-13T21:53:44.181Z,40.00
2022-10-13T21:56:12.686Z,42.00
2022-10-13T21:58:40.738Z,37.80
2022-10-13T22:01:08.991Z,36.00
2022-10-13T22:03:38.477Z,38.50
2022-10-13T22:06:07.637Z,36.00
2022-10-13T22:08:39.096Z,41.50
2022-10-13T22:11:15.765Z,36.00
2022-10-13T22:13:43.794Z,44.25
2022-10-13T22:16:13.106Z,41.00
2022-10-13T22:18:46.812Z,43.00
2022-10-13T22:21:16.150Z,40.75
2022-10-13T22:23:44.224Z,42.25
2022-10-13T22:26:12.236Z,40.60
2022-10-13T22:28:40.375Z,43.25
2022-10-13T22:31:09.124Z,41.00
2022-10-13T22:33:37.469Z,37.80
2022-10-13T22:36:09.434Z,43.00
2022-10-13T22:38:37.490Z,41.00
2022-10-13T22:41:08.358Z,37.20
2022-10-13T22:43:36.653Z,32.60
2022-10-13T22:46:13.633Z,47.00
2022-10-13T22:48:41.869Z,39.00
2022-10-13T22:51:17.466Z,35.20
2022-10-13T22:53:45.524Z,33.00
2022-10-13T22:56:14.743Z,33.00
2022-10-13T22:58:42.817Z,37.00
2022-10-13T23:01:12.512Z,38.00
2022-10-13T23:03:40.807Z,40.50
2022-10-13T23:06:09.586Z,44.40
2022-10-13T23:08:39.188Z,31.50
2022-10-13T23:11:07.197Z,32.80
2022-10-13T23:13:35.283Z,30.25
2022-10-13T23:16:03.447Z,32.40
2022-10-13T23:18:35.211Z,33.00
2022-10-13T23:21:05.966Z,31.80
2022-10-13T23:23:34.110Z,34.20
2022-10-13T23:26:07.126Z,34.40
2022-10-13T23:28:35.251Z,26.00
2022-10-13T23:31:04.118Z,34.80
2022-10-13T23:33:32.176Z,32.00
2022-10-13T23:36:01.042Z,34.50
2022-10-13T23:38:29.328Z,39.60
2022-10-13T23:40:59.705Z,30.25
2022-10-13T23:43:29.088Z,25.40
2022-10-13T23:45:57.109Z,29.60
2022-10-13T23:48:25.211Z,33.60
2022-10-13T23:50:53.232Z,31.50
2022-10-13T23:53:21.268Z,31.00
2022-10-13T23:55:49.347Z,38.80
2022-10-13T23:58:17.360Z,31.00
